sensor_id;sensor_type;location;lat;lon;timestamp;pressure;altitude;pressure_sealevel;temperature
7882;BMP180;3986;41.884;23.466;2022-08-20T00:01:55;91871.00;;;20.00
7882;BMP180;3986;41.884;23.466;2022-08-20T00:04:21;91872.00;;;20.20
7882;BMP180;3986;41.884;23.466;2022-08-20T00:06:48;91874.00;;;20.60
7882;BMP180;3986;41.884;23.466;2022-08-20T00:09:16;91871.00;;;19.60
7882;BMP180;3986;41.884;23.466;2022-08-20T00:11:44;91877.00;;;19.10
7882;BMP180;3986;41.884;23.466;2022-08-20T00:14:11;91889.00;;;19.40
7882;BMP180;3986;41.884;23.466;2022-08-20T00:16:39;91888.00;;;19.70
7882;BMP180;3986;41.884;23.466;2022-08-20T00:19:08;91878.00;;;20.10
7882;BMP180;3986;41.884;23.466;2022-08-20T00:21:35;91888.00;;;19.80
7882;BMP180;3986;41.884;23.466;2022-08-20T00:24:03;91883.00;;;19.70
7882;BMP180;3986;41.884;23.466;2022-08-20T00:26:32;91877.00;;;19.90
7882;BMP180;3986;41.884;23.466;2022-08-20T00:28:59;91869.00;;;20.20
7882;BMP180;3986;41.884;23.466;2022-08-20T00:31:26;91870.00;;;20.50
7882;BMP180;3986;41.884;23.466;2022-08-20T00:33:53;91866.00;;;20.20
7882;BMP180;3986;41.884;23.466;2022-08-20T00:36:20;91862.00;;;19.70
7882;BMP180;3986;41.884;23.466;2022-08-20T00:38:47;91862.00;;;19.80
7882;BMP180;3986;41.884;23.466;2022-08-20T00:41:18;91845.00;;;19.80
7882;BMP180;3986;41.884;23.466;2022-08-20T00:43:49;91851.00;;;20.10
7882;BMP180;3986;41.884;23.466;2022-08-20T00:46:18;91865.00;;;19.60
7882;BMP180;3986;41.884;23.466;2022-08-20T00:48:49;91882.00;;;19.30
7882;BMP180;3986;41.884;23.466;2022-08-20T00:51:22;91865.00;;;19.40
7882;BMP180;3986;41.884;23.466;2022-08-20T00:53:50;91862.00;;;19.90
7882;BMP180;3986;41.884;23.466;2022-08-20T00:56:17;91864.00;;;19.70
7882;BMP180;3986;41.884;23.466;2022-08-20T00:58:46;91858.00;;;19.80
7882;BMP180;3986;41.884;23.466;2022-08-20T01:01:15;91847.00;;;19.80
7882;BMP180;3986;41.884;23.466;2022-08-20T01:03:43;91871.00;;;19.80
7882;BMP180;3986;41.884;23.466;2022-08-20T01:06:10;91863.00;;;19.60
7882;BMP180;3986;41.884;23.466;2022-08-20T01:08:38;91859.00;;;19.60
7882;BMP180;3986;41.884;23.466;2022-08-20T01:11:06;91869.00;;;19.50
7882;BMP180;3986;41.884;23.466;2022-08-20T01:13:39;91856.00;;;19.40
7882;BMP180;3986;41.884;23.466;2022-08-20T01:16:14;91860.00;;;19.60
7882;BMP180;3986;41.884;23.466;2022-08-20T01:18:44;91860.00;;;19.70
7882;BMP180;3986;41.884;23.466;2022-08-20T01:21:13;91858.00;;;19.70
7882;BMP180;3986;41.884;23.466;2022-08-20T01:23:46;91865.00;;;19.70
7882;BMP180;3986;41.884;23.466;2022-08-20T01:26:18;91862.00;;;19.70
7882;BMP180;3986;41.884;23.466;2022-08-20T01:28:48;91851.00;;;19.40
7882;BMP180;3986;41.884;23.466;2022-08-20T01:31:20;91853.00;;;19.30
7882;BMP180;3986;41.884;23.466;2022-08-20T01:33:48;91869.00;;;19.00
7882;BMP180;3986;41.884;23.466;2022-08-20T01:36:17;91862.00;;;18.40
7882;BMP180;3986;41.884;23.466;2022-08-20T01:38:44;91860.00;;;18.60
7882;BMP180;3986;41.884;23.466;2022-08-20T01:41:43;91865.00;;;18.90
7882;BMP180;3986;41.884;23.466;2022-08-20T01:44:13;91851.00;;;18.70
7882;BMP180;3986;41.884;23.466;2022-08-20T01:46:42;91855.00;;;19.00
7882;BMP180;3986;41.884;23.466;2022-08-20T01:49:12;91860.00;;;19.00
7882;BMP180;3986;41.884;23.466;2022-08-20T01:51:40;91854.00;;;19.00
7882;BMP180;3986;41.884;23.466;2022-08-20T01:54:07;91860.00;;;18.90
7882;BMP180;3986;41.884;23.466;2022-08-20T01:56:35;91861.00;;;18.60
7882;BMP180;3986;41.884;23.466;2022-08-20T01:59:16;91851.00;;;18.40
7882;BMP180;3986;41.884;23.466;2022-08-20T02:01:43;91848.00;;;18.60
7882;BMP180;3986;41.884;23.466;2022-08-20T02:04:10;91845.00;;;19.00
7882;BMP180;3986;41.884;23.466;2022-08-20T02:06:40;91852.00;;;18.90
7882;BMP180;3986;41.884;23.466;2022-08-20T02:09:09;91843.00;;;19.30
7882;BMP180;3986;41.884;23.466;2022-08-20T02:11:37;91841.00;;;19.00
7882;BMP180;3986;41.884;23.466;2022-08-20T02:14:06;91838.00;;;18.60
7882;BMP180;3986;41.884;23.466;2022-08-20T02:16:38;91842.00;;;18.90
7882;BMP180;3986;41.884;23.466;2022-08-20T02:19:10;91843.00;;;19.10
7882;BMP180;3986;41.884;23.466;2022-08-20T02:21:43;91841.00;;;18.60
7882;BMP180;3986;41.884;23.466;2022-08-20T02:24:10;91853.00;;;17.90
7882;BMP180;3986;41.884;23.466;2022-08-20T02:26:38;91840.00;;;17.70
7882;BMP180;3986;41.884;23.466;2022-08-20T02:29:07;91839.00;;;17.90
7882;BMP180;3986;41.884;23.466;2022-08-20T02:31:37;91838.00;;;18.20
7882;BMP180;3986;41.884;23.466;2022-08-20T02:34:06;91810.00;;;18.50
7882;BMP180;3986;41.884;23.466;2022-08-20T02:36:34;91830.00;;;18.40
7882;BMP180;3986;41.884;23.466;2022-08-20T02:39:03;91834.00;;;18.50
7882;BMP180;3986;41.884;23.466;2022-08-20T02:41:31;91839.00;;;17.80
7882;BMP180;3986;41.884;23.466;2022-08-20T02:43:58;91836.00;;;17.90
7882;BMP180;3986;41.884;23.466;2022-08-20T02:46:25;91836.00;;;18.10
7882;BMP180;3986;41.884;23.466;2022-08-20T02:48:54;91831.00;;;18.30
7882;BMP180;3986;41.884;23.466;2022-08-20T02:51:22;91824.00;;;18.20
7882;BMP180;3986;41.884;23.466;2022-08-20T02:53:49;91828.00;;;17.80
7882;BMP180;3986;41.884;23.466;2022-08-20T02:56:17;91841.00;;;17.70
7882;BMP180;3986;41.884;23.466;2022-08-20T02:58:44;91831.00;;;18.10
7882;BMP180;3986;41.884;23.466;2022-08-20T03:01:13;91848.00;;;18.40
7882;BMP180;3986;41.884;23.466;2022-08-20T03:03:40;91847.00;;;18.40
7882;BMP180;3986;41.884;23.466;2022-08-20T03:06:11;91840.00;;;18.60
7882;BMP180;3986;41.884;23.466;2022-08-20T03:08:39;91843.00;;;18.40
7882;BMP180;3986;41.884;23.466;2022-08-20T03:11:06;91842.00;;;18.40
7882;BMP180;3986;41.884;23.466;2022-08-20T03:13:33;91851.00;;;18.40
7882;BMP180;3986;41.884;23.466;2022-08-20T03:16:03;91848.00;;;18.40
7882;BMP180;3986;41.884;23.466;2022-08-20T03:18:36;91858.00;;;18.30
7882;BMP180;3986;41.884;23.466;2022-08-20T03:21:04;91850.00;;;18.10
7882;BMP180;3986;41.884;23.466;2022-08-20T03:23:34;91853.00;;;18.20
7882;BMP180;3986;41.884;23.466;2022-08-20T03:26:03;91854.00;;;18.00
7882;BMP180;3986;41.884;23.466;2022-08-20T03:28:30;91849.00;;;17.70
7882;BMP180;3986;41.884;23.466;2022-08-20T03:30:57;91846.00;;;17.70
7882;BMP180;3986;41.884;23.466;2022-08-20T03:33:25;91854.00;;;17.80
7882;BMP180;3986;41.884;23.466;2022-08-20T03:35:53;91844.00;;;17.80
7882;BMP180;3986;41.884;23.466;2022-08-20T03:38:21;91853.00;;;17.80
7882;BMP180;3986;41.884;23.466;2022-08-20T03:40:50;91858.00;;;17.80
7882;BMP180;3986;41.884;23.466;2022-08-20T03:43:17;91863.00;;;17.80
7882;BMP180;3986;41.884;23.466;2022-08-20T03:45:45;91866.00;;;17.50
7882;BMP180;3986;41.884;23.466;2022-08-20T03:48:14;91864.00;;;17.50
7882;BMP180;3986;41.884;23.466;2022-08-20T03:50:42;91872.00;;;17.70
7882;BMP180;3986;41.884;23.466;2022-08-20T03:53:11;91871.00;;;18.00
7882;BMP180;3986;41.884;23.466;2022-08-20T03:55:39;91870.00;;;18.20
7882;BMP180;3986;41.884;23.466;2022-08-20T03:58:08;91844.00;;;17.80
7882;BMP180;3986;41.884;23.466;2022-08-20T04:00:38;91871.00;;;17.70
7882;BMP180;3986;41.884;23.466;2022-08-20T04:03:06;91882.00;;;17.80
7882;BMP180;3986;41.884;23.466;2022-08-20T04:05:34;91881.00;;;17.70
7882;BMP180;3986;41.884;23.466;2022-08-20T04:08:03;91877.00;;;17.60
7882;BMP180;3986;41.884;23.466;2022-08-20T04:10:31;91872.00;;;17.70
7882;BMP180;3986;41.884;23.466;2022-08-20T04:12:58;91791.00;;;17.90
7882;BMP180;3986;41.884;23.466;2022-08-20T04:15:26;91874.00;;;17.90
7882;BMP180;3986;41.884;23.466;2022-08-20T04:17:53;91860.00;;;17.70
7882;BMP180;3986;41.884;23.466;2022-08-20T04:20:22;91872.00;;;17.90
7882;BMP180;3986;41.884;23.466;2022-08-20T04:22:51;91869.00;;;17.70
7882;BMP180;3986;41.884;23.466;2022-08-20T04:25:18;91853.00;;;17.20
7882;BMP180;3986;41.884;23.466;2022-08-20T04:27:46;91858.00;;;17.60
7882;BMP180;3986;41.884;23.466;2022-08-20T04:30:16;91860.00;;;17.50
7882;BMP180;3986;41.884;23.466;2022-08-20T04:32:44;91859.00;;;17.70
7882;BMP180;3986;41.884;23.466;2022-08-20T04:35:13;91857.00;;;17.80
7882;BMP180;3986;41.884;23.466;2022-08-20T04:37:43;91860.00;;;18.10
7882;BMP180;3986;41.884;23.466;2022-08-20T04:40:16;91862.00;;;18.00
7882;BMP180;3986;41.884;23.466;2022-08-20T04:43:00;91863.00;;;18.00
7882;BMP180;3986;41.884;23.466;2022-08-20T04:45:29;91825.00;;;18.20
7882;BMP180;3986;41.884;23.466;2022-08-20T04:48:00;91861.00;;;18.50
7882;BMP180;3986;41.884;23.466;2022-08-20T04:50:30;91858.00;;;18.90
7882;BMP180;3986;41.884;23.466;2022-08-20T04:53:00;91860.00;;;18.90
7882;BMP180;3986;41.884;23.466;2022-08-20T04:55:27;91860.00;;;18.50
7882;BMP180;3986;41.884;23.466;2022-08-20T04:58:02;91855.00;;;18.70
7882;BMP180;3986;41.884;23.466;2022-08-20T05:00:30;91865.00;;;18.80
7882;BMP180;3986;41.884;23.466;2022-08-20T05:02:59;91856.00;;;19.60
7882;BMP180;3986;41.884;23.466;2022-08-20T05:05:26;91859.00;;;19.80
7882;BMP180;3986;41.884;23.466;2022-08-20T05:07:54;91820.00;;;20.00
7882;BMP180;3986;41.884;23.466;2022-08-20T05:10:23;91851.00;;;20.10
7882;BMP180;3986;41.884;23.466;2022-08-20T05:12:49;91854.00;;;20.20
7882;BMP180;3986;41.884;23.466;2022-08-20T05:15:16;91852.00;;;20.30
7882;BMP180;3986;41.884;23.466;2022-08-20T05:17:43;91853.00;;;20.20
7882;BMP180;3986;41.884;23.466;2022-08-20T05:20:16;91853.00;;;20.60
7882;BMP180;3986;41.884;23.466;2022-08-20T05:22:43;91860.00;;;20.60
7882;BMP180;3986;41.884;23.466;2022-08-20T05:25:10;91859.00;;;20.00
7882;BMP180;3986;41.884;23.466;2022-08-20T05:27:37;91855.00;;;19.50
7882;BMP180;3986;41.884;23.466;2022-08-20T05:30:08;91815.00;;;19.50
7882;BMP180;3986;41.884;23.466;2022-08-20T05:32:36;91850.00;;;20.00
7882;BMP180;3986;41.884;23.466;2022-08-20T05:35:04;91847.00;;;20.20
7882;BMP180;3986;41.884;23.466;2022-08-20T05:37:34;91852.00;;;20.60
7882;BMP180;3986;41.884;23.466;2022-08-20T05:40:07;91847.00;;;20.70
7882;BMP180;3986;41.884;23.466;2022-08-20T05:42:34;91847.00;;;21.10
7882;BMP180;3986;41.884;23.466;2022-08-20T05:45:02;91844.00;;;21.00
7882;BMP180;3986;41.884;23.466;2022-08-20T05:47:29;91844.00;;;21.30
7882;BMP180;3986;41.884;23.466;2022-08-20T05:49:56;91838.00;;;21.00
7882;BMP180;3986;41.884;23.466;2022-08-20T05:52:23;91841.00;;;20.60
7882;BMP180;3986;41.884;23.466;2022-08-20T05:54:51;91840.00;;;21.30
7882;BMP180;3986;41.884;23.466;2022-08-20T05:57:20;91836.00;;;21.40
7882;BMP180;3986;41.884;23.466;2022-08-20T05:59:48;91834.00;;;21.80
7882;BMP180;3986;41.884;23.466;2022-08-20T06:02:15;91831.00;;;22.00
7882;BMP180;3986;41.884;23.466;2022-08-20T06:05:00;91824.00;;;22.60
7882;BMP180;3986;41.884;23.466;2022-08-20T06:07:27;91830.00;;;22.70
7882;BMP180;3986;41.884;23.466;2022-08-20T06:09:55;91823.00;;;22.60
7882;BMP180;3986;41.884;23.466;2022-08-20T06:12:22;91834.00;;;22.50
7882;BMP180;3986;41.884;23.466;2022-08-20T06:14:49;91828.00;;;22.80
7882;BMP180;3986;41.884;23.466;2022-08-20T06:17:18;91823.00;;;22.90
7882;BMP180;3986;41.884;23.466;2022-08-20T06:19:46;91823.00;;;23.20
7882;BMP180;3986;41.884;23.466;2022-08-20T06:22:13;91840.00;;;23.20
7882;BMP180;3986;41.884;23.466;2022-08-20T06:24:40;91822.00;;;23.30
7882;BMP180;3986;41.884;23.466;2022-08-20T06:27:12;91819.00;;;23.30
7882;BMP180;3986;41.884;23.466;2022-08-20T06:29:40;91819.00;;;23.60
7882;BMP180;3986;41.884;23.466;2022-08-20T06:32:07;91812.00;;;23.50
7882;BMP180;3986;41.884;23.466;2022-08-20T06:34:34;91822.00;;;23.60
7882;BMP180;3986;41.884;23.466;2022-08-20T06:37:01;91816.00;;;23.60
7882;BMP180;3986;41.884;23.466;2022-08-20T06:39:28;91824.00;;;23.70
7882;BMP180;3986;41.884;23.466;2022-08-20T06:41:55;91820.00;;;23.20
7882;BMP180;3986;41.884;23.466;2022-08-20T06:44:24;91824.00;;;24.10
7882;BMP180;3986;41.884;23.466;2022-08-20T06:46:52;91824.00;;;24.40
7882;BMP180;3986;41.884;23.466;2022-08-20T06:49:21;91820.00;;;24.40
7882;BMP180;3986;41.884;23.466;2022-08-20T06:51:47;91813.00;;;24.00
7882;BMP180;3986;41.884;23.466;2022-08-20T06:54:14;91809.00;;;24.70
7882;BMP180;3986;41.884;23.466;2022-08-20T06:56:41;91817.00;;;25.00
7882;BMP180;3986;41.884;23.466;2022-08-20T06:59:08;91820.00;;;25.10
7882;BMP180;3986;41.884;23.466;2022-08-20T07:01:36;91813.00;;;25.10
7882;BMP180;3986;41.884;23.466;2022-08-20T07:04:03;91812.00;;;25.40
7882;BMP180;3986;41.884;23.466;2022-08-20T07:06:32;91817.00;;;25.80
7882;BMP180;3986;41.884;23.466;2022-08-20T07:08:59;91813.00;;;25.80
7882;BMP180;3986;41.884;23.466;2022-08-20T07:11:26;91816.00;;;26.10
7882;BMP180;3986;41.884;23.466;2022-08-20T07:13:52;91817.00;;;25.60
7882;BMP180;3986;41.884;23.466;2022-08-20T07:16:21;91813.00;;;25.40
7882;BMP180;3986;41.884;23.466;2022-08-20T07:18:49;91813.00;;;25.70
7882;BMP180;3986;41.884;23.466;2022-08-20T07:21:16;91815.00;;;26.40
7882;BMP180;3986;41.884;23.466;2022-08-20T07:23:43;91804.00;;;26.30
7882;BMP180;3986;41.884;23.466;2022-08-20T07:26:10;91805.00;;;26.50
7882;BMP180;3986;41.884;23.466;2022-08-20T07:28:37;91799.00;;;26.30
7882;BMP180;3986;41.884;23.466;2022-08-20T07:31:04;91802.00;;;26.80
7882;BMP180;3986;41.884;23.466;2022-08-20T07:33:49;91800.00;;;27.10
7882;BMP180;3986;41.884;23.466;2022-08-20T07:36:17;91806.00;;;27.10
7882;BMP180;3986;41.884;23.466;2022-08-20T07:38:44;91799.00;;;27.10
7882;BMP180;3986;41.884;23.466;2022-08-20T07:41:13;91799.00;;;27.50
7882;BMP180;3986;41.884;23.466;2022-08-20T07:43:40;91793.00;;;27.90
7882;BMP180;3986;41.884;23.466;2022-08-20T07:46:08;91803.00;;;28.00
7882;BMP180;3986;41.884;23.466;2022-08-20T07:48:37;91801.00;;;27.90
7882;BMP180;3986;41.884;23.466;2022-08-20T07:51:08;91799.00;;;28.00
7882;BMP180;3986;41.884;23.466;2022-08-20T07:53:36;91800.00;;;28.10
7882;BMP180;3986;41.884;23.466;2022-08-20T07:56:06;91798.00;;;28.40
7882;BMP180;3986;41.884;23.466;2022-08-20T07:58:34;91798.00;;;28.30
7882;BMP180;3986;41.884;23.466;2022-08-20T08:01:03;91801.00;;;28.50
7882;BMP180;3986;41.884;23.466;2022-08-20T08:03:30;91795.00;;;28.40
7882;BMP180;3986;41.884;23.466;2022-08-20T08:05:57;91802.00;;;29.20
7882;BMP180;3986;41.884;23.466;2022-08-20T08:08:27;91797.00;;;29.30
7882;BMP180;3986;41.884;23.466;2022-08-20T08:10:56;91795.00;;;29.70
7882;BMP180;3986;41.884;23.466;2022-08-20T08:13:24;91790.00;;;30.30
7882;BMP180;3986;41.884;23.466;2022-08-20T08:15:54;91785.00;;;29.90
7882;BMP180;3986;41.884;23.466;2022-08-20T08:18:25;91784.00;;;29.70
7882;BMP180;3986;41.884;23.466;2022-08-20T08:20:53;91786.00;;;30.50
7882;BMP180;3986;41.884;23.466;2022-08-20T08:23:21;91785.00;;;31.00
7882;BMP180;3986;41.884;23.466;2022-08-20T08:25:51;91778.00;;;31.20
7882;BMP180;3986;41.884;23.466;2022-08-20T08:28:19;91784.00;;;30.60
7882;BMP180;3986;41.884;23.466;2022-08-20T08:30:47;91780.00;;;30.70
7882;BMP180;3986;41.884;23.466;2022-08-20T08:33:18;91775.00;;;31.20
7882;BMP180;3986;41.884;23.466;2022-08-20T08:35:57;91777.00;;;30.50
7882;BMP180;3986;41.884;23.466;2022-08-20T08:38:27;91773.00;;;31.60
7882;BMP180;3986;41.884;23.466;2022-08-20T08:40:57;91764.00;;;31.40
7882;BMP180;3986;41.884;23.466;2022-08-20T08:43:25;91767.00;;;31.30
7882;BMP180;3986;41.884;23.466;2022-08-20T08:45:57;91767.00;;;31.30
7882;BMP180;3986;41.884;23.466;2022-08-20T08:48:30;91765.00;;;31.50
7882;BMP180;3986;41.884;23.466;2022-08-20T08:50:58;91763.00;;;31.50
7882;BMP180;3986;41.884;23.466;2022-08-20T08:53:29;91758.00;;;31.70
7882;BMP180;3986;41.884;23.466;2022-08-20T08:55:59;91751.00;;;32.10
7882;BMP180;3986;41.884;23.466;2022-08-20T08:58:26;91740.00;;;31.50
7882;BMP180;3986;41.884;23.466;2022-08-20T09:00:54;91756.00;;;32.70
7882;BMP180;3986;41.884;23.466;2022-08-20T09:03:24;91750.00;;;32.10
7882;BMP180;3986;41.884;23.466;2022-08-20T09:05:55;91750.00;;;32.30
7882;BMP180;3986;41.884;23.466;2022-08-20T09:08:25;91750.00;;;32.50
7882;BMP180;3986;41.884;23.466;2022-08-20T09:10:52;91746.00;;;32.80
7882;BMP180;3986;41.884;23.466;2022-08-20T09:13:21;91750.00;;;34.90
7882;BMP180;3986;41.884;23.466;2022-08-20T09:15:48;91751.00;;;36.00
7882;BMP180;3986;41.884;23.466;2022-08-20T09:18:15;91746.00;;;37.90
7882;BMP180;3986;41.884;23.466;2022-08-20T09:20:41;91745.00;;;38.00
7882;BMP180;3986;41.884;23.466;2022-08-20T09:23:08;91745.00;;;37.20
7882;BMP180;3986;41.884;23.466;2022-08-20T09:25:35;91739.00;;;39.50
7882;BMP180;3986;41.884;23.466;2022-08-20T09:28:03;91736.00;;;36.10
7882;BMP180;3986;41.884;23.466;2022-08-20T09:30:31;91733.00;;;35.00
7882;BMP180;3986;41.884;23.466;2022-08-20T09:32:58;91739.00;;;37.30
7882;BMP180;3986;41.884;23.466;2022-08-20T09:35:25;91741.00;;;37.70
7882;BMP180;3986;41.884;23.466;2022-08-20T09:37:52;91741.00;;;39.40
7882;BMP180;3986;41.884;23.466;2022-08-20T09:40:19;91733.00;;;39.50
7882;BMP180;3986;41.884;23.466;2022-08-20T09:42:46;91737.00;;;35.80
7882;BMP180;3986;41.884;23.466;2022-08-20T09:45:14;91733.00;;;39.70
7882;BMP180;3986;41.884;23.466;2022-08-20T09:47:43;91728.00;;;38.80
7882;BMP180;3986;41.884;23.466;2022-08-20T09:50:10;91726.00;;;38.80
7882;BMP180;3986;41.884;23.466;2022-08-20T09:52:40;91733.00;;;40.50
7882;BMP180;3986;41.884;23.466;2022-08-20T09:55:17;91741.00;;;41.90
7882;BMP180;3986;41.884;23.466;2022-08-20T09:57:46;91729.00;;;41.20
7882;BMP180;3986;41.884;23.466;2022-08-20T10:00:14;91737.00;;;44.20
7882;BMP180;3986;41.884;23.466;2022-08-20T10:02:42;91732.00;;;41.10
7882;BMP180;3986;41.884;23.466;2022-08-20T10:05:09;91731.00;;;39.00
7882;BMP180;3986;41.884;23.466;2022-08-20T10:07:37;91739.00;;;40.80
7882;BMP180;3986;41.884;23.466;2022-08-20T10:10:06;91743.00;;;38.30
7882;BMP180;3986;41.884;23.466;2022-08-20T10:12:33;91729.00;;;38.30
7882;BMP180;3986;41.884;23.466;2022-08-20T10:15:01;91683.00;;;39.80
7882;BMP180;3986;41.884;23.466;2022-08-20T10:17:27;91727.00;;;41.00
7882;BMP180;3986;41.884;23.466;2022-08-20T10:19:56;91728.00;;;40.30
7882;BMP180;3986;41.884;23.466;2022-08-20T10:22:22;91720.00;;;44.40
7882;BMP180;3986;41.884;23.466;2022-08-20T10:24:49;91714.00;;;41.00
7882;BMP180;3986;41.884;23.466;2022-08-20T10:27:16;91719.00;;;42.80
7882;BMP180;3986;41.884;23.466;2022-08-20T10:29:43;91724.00;;;42.70
7882;BMP180;3986;41.884;23.466;2022-08-20T10:32:13;91707.00;;;43.70
7882;BMP180;3986;41.884;23.466;2022-08-20T10:34:42;91715.00;;;41.50
7882;BMP180;3986;41.884;23.466;2022-08-20T10:37:14;91709.00;;;43.00
7882;BMP180;3986;41.884;23.466;2022-08-20T10:39:41;91708.00;;;44.20
7882;BMP180;3986;41.884;23.466;2022-08-20T10:42:08;91699.00;;;38.70
7882;BMP180;3986;41.884;23.466;2022-08-20T10:44:35;91700.00;;;41.50
7882;BMP180;3986;41.884;23.466;2022-08-20T10:47:17;91690.00;;;41.90
7882;BMP180;3986;41.884;23.466;2022-08-20T10:49:45;91623.00;;;42.50
7882;BMP180;3986;41.884;23.466;2022-08-20T10:52:13;91682.00;;;42.30
7882;BMP180;3986;41.884;23.466;2022-08-20T10:54:40;91681.00;;;43.20
7882;BMP180;3986;41.884;23.466;2022-08-20T10:57:08;91678.00;;;42.80
7882;BMP180;3986;41.884;23.466;2022-08-20T10:59:39;91683.00;;;41.20
7882;BMP180;3986;41.884;23.466;2022-08-20T11:02:06;91679.00;;;41.40
7882;BMP180;3986;41.884;23.466;2022-08-20T11:04:33;91666.00;;;42.00
7882;BMP180;3986;41.884;23.466;2022-08-20T11:07:10;91673.00;;;41.60
7882;BMP180;3986;41.884;23.466;2022-08-20T11:09:38;91663.00;;;41.90
7882;BMP180;3986;41.884;23.466;2022-08-20T11:12:06;91656.00;;;43.80
7882;BMP180;3986;41.884;23.466;2022-08-20T11:14:33;91604.00;;;41.20
7882;BMP180;3986;41.884;23.466;2022-08-20T11:17:00;91652.00;;;38.50
7882;BMP180;3986;41.884;23.466;2022-08-20T11:19:26;91647.00;;;41.30
7882;BMP180;3986;41.884;23.466;2022-08-20T11:21:53;91625.00;;;41.30
7882;BMP180;3986;41.884;23.466;2022-08-20T11:24:20;91643.00;;;40.70
7882;BMP180;3986;41.884;23.466;2022-08-20T11:26:48;91637.00;;;43.10
7882;BMP180;3986;41.884;23.466;2022-08-20T11:29:17;91621.00;;;42.70
7882;BMP180;3986;41.884;23.466;2022-08-20T11:31:45;91646.00;;;43.00
7882;BMP180;3986;41.884;23.466;2022-08-20T11:34:11;91631.00;;;40.00
7882;BMP180;3986;41.884;23.466;2022-08-20T11:36:39;91629.00;;;41.50
7882;BMP180;3986;41.884;23.466;2022-08-20T11:39:06;91621.00;;;39.30
7882;BMP180;3986;41.884;23.466;2022-08-20T11:41:33;91619.00;;;39.80
7882;BMP180;3986;41.884;23.466;2022-08-20T11:44:01;91620.00;;;42.60
7882;BMP180;3986;41.884;23.466;2022-08-20T11:46:28;91613.00;;;43.10
7882;BMP180;3986;41.884;23.466;2022-08-20T11:48:57;91601.00;;;42.20
7882;BMP180;3986;41.884;23.466;2022-08-20T11:51:24;91610.00;;;38.80
7882;BMP180;3986;41.884;23.466;2022-08-20T11:53:51;91584.00;;;39.40
7882;BMP180;3986;41.884;23.466;2022-08-20T11:56:17;91589.00;;;40.10
7882;BMP180;3986;41.884;23.466;2022-08-20T11:58:45;91587.00;;;40.80
7882;BMP180;3986;41.884;23.466;2022-08-20T12:01:13;91585.00;;;39.90
7882;BMP180;3986;41.884;23.466;2022-08-20T12:03:40;91591.00;;;37.60
7882;BMP180;3986;41.884;23.466;2022-08-20T12:06:07;91592.00;;;38.60
7882;BMP180;3986;41.884;23.466;2022-08-20T12:08:34;91586.00;;;39.20
7882;BMP180;3986;41.884;23.466;2022-08-20T12:11:01;91583.00;;;38.50
7882;BMP180;3986;41.884;23.466;2022-08-20T12:13:31;91573.00;;;37.50
7882;BMP180;3986;41.884;23.466;2022-08-20T12:15:59;91566.00;;;37.00
7882;BMP180;3986;41.884;23.466;2022-08-20T12:18:27;91573.00;;;39.10
7882;BMP180;3986;41.884;23.466;2022-08-20T12:20:54;91561.00;;;37.20
7882;BMP180;3986;41.884;23.466;2022-08-20T12:23:21;91567.00;;;38.70
7882;BMP180;3986;41.884;23.466;2022-08-20T12:25:48;91557.00;;;37.20
7882;BMP180;3986;41.884;23.466;2022-08-20T12:28:15;91560.00;;;37.00
7882;BMP180;3986;41.884;23.466;2022-08-20T12:30:42;91562.00;;;36.80
7882;BMP180;3986;41.884;23.466;2022-08-20T12:33:09;91554.00;;;37.00
7882;BMP180;3986;41.884;23.466;2022-08-20T12:35:37;91544.00;;;37.00
7882;BMP180;3986;41.884;23.466;2022-08-20T12:38:04;91545.00;;;35.60
7882;BMP180;3986;41.884;23.466;2022-08-20T12:40:32;91551.00;;;34.60
7882;BMP180;3986;41.884;23.466;2022-08-20T12:42:59;91540.00;;;35.00
7882;BMP180;3986;41.884;23.466;2022-08-20T12:45:27;91535.00;;;35.50
7882;BMP180;3986;41.884;23.466;2022-08-20T12:47:59;91507.00;;;33.80
7882;BMP180;3986;41.884;23.466;2022-08-20T12:50:26;91541.00;;;35.00
7882;BMP180;3986;41.884;23.466;2022-08-20T12:52:55;91532.00;;;34.90
7882;BMP180;3986;41.884;23.466;2022-08-20T12:55:21;91516.00;;;34.20
7882;BMP180;3986;41.884;23.466;2022-08-20T12:57:50;91473.00;;;32.60
7882;BMP180;3986;41.884;23.466;2022-08-20T13:00:20;91507.00;;;32.30
7882;BMP180;3986;41.884;23.466;2022-08-20T13:02:48;91500.00;;;32.30
7882;BMP180;3986;41.884;23.466;2022-08-20T13:05:15;91469.00;;;31.50
7882;BMP180;3986;41.884;23.466;2022-08-20T13:07:43;91489.00;;;31.40
7882;BMP180;3986;41.884;23.466;2022-08-20T13:10:14;91503.00;;;32.30
7882;BMP180;3986;41.884;23.466;2022-08-20T13:12:42;91496.00;;;33.30
7882;BMP180;3986;41.884;23.466;2022-08-20T13:15:09;91497.00;;;33.20
7882;BMP180;3986;41.884;23.466;2022-08-20T13:17:37;91501.00;;;32.70
7882;BMP180;3986;41.884;23.466;2022-08-20T13:20:05;91498.00;;;32.90
7882;BMP180;3986;41.884;23.466;2022-08-20T13:22:33;91502.00;;;33.70
7882;BMP180;3986;41.884;23.466;2022-08-20T13:25:00;91497.00;;;33.10
7882;BMP180;3986;41.884;23.466;2022-08-20T13:27:28;91484.00;;;33.30
7882;BMP180;3986;41.884;23.466;2022-08-20T13:29:55;91482.00;;;32.00
7882;BMP180;3986;41.884;23.466;2022-08-20T13:32:22;91453.00;;;32.00
7882;BMP180;3986;41.884;23.466;2022-08-20T13:34:50;91473.00;;;32.40
7882;BMP180;3986;41.884;23.466;2022-08-20T13:37:18;91479.00;;;32.30
7882;BMP180;3986;41.884;23.466;2022-08-20T13:39:45;91487.00;;;32.10
7882;BMP180;3986;41.884;23.466;2022-08-20T13:42:13;91485.00;;;33.00
7882;BMP180;3986;41.884;23.466;2022-08-20T13:44:41;91493.00;;;33.20
7882;BMP180;3986;41.884;23.466;2022-08-20T13:47:15;91403.00;;;33.40
7882;BMP180;3986;41.884;23.466;2022-08-20T13:49:43;91491.00;;;33.60
7882;BMP180;3986;41.884;23.466;2022-08-20T13:52:10;91480.00;;;32.80
7882;BMP180;3986;41.884;23.466;2022-08-20T13:54:37;91481.00;;;33.00
7882;BMP180;3986;41.884;23.466;2022-08-20T13:57:07;91474.00;;;32.10
7882;BMP180;3986;41.884;23.466;2022-08-20T13:59:35;91464.00;;;31.90
7882;BMP180;3986;41.884;23.466;2022-08-20T14:02:04;91464.00;;;31.50
7882;BMP180;3986;41.884;23.466;2022-08-20T14:04:31;91458.00;;;31.20
7882;BMP180;3986;41.884;23.466;2022-08-20T14:15:39;91455.00;;;31.10
7882;BMP180;3986;41.884;23.466;2022-08-20T14:18:07;91448.00;;;31.50
7882;BMP180;3986;41.884;23.466;2022-08-20T14:20:34;91441.00;;;31.10
7882;BMP180;3986;41.884;23.466;2022-08-20T14:23:01;91449.00;;;30.60
7882;BMP180;3986;41.884;23.466;2022-08-20T14:25:30;91453.00;;;30.80
7882;BMP180;3986;41.884;23.466;2022-08-20T14:27:58;91467.00;;;30.60
7882;BMP180;3986;41.884;23.466;2022-08-20T14:30:26;91466.00;;;30.80
7882;BMP180;3986;41.884;23.466;2022-08-20T14:32:55;91467.00;;;30.80
7882;BMP180;3986;41.884;23.466;2022-08-20T14:35:22;91470.00;;;30.70
7882;BMP180;3986;41.884;23.466;2022-08-20T14:37:50;91457.00;;;30.90